Barkley Observed Data For Previous 48 Hours

Caption
Day and Hour Reservoir Elevation (behind dam)* Tailwater Elevation (below dam)* Average Hourly Discharge*
9/21/2017 1 AM CDT 355.25 306.05 19,100
9/21/2017 2 AM CDT 355.25 305.95 18,800
9/21/2017 3 AM CDT 355.30 305.90 19,100
9/21/2017 4 AM CDT 355.30 305.90 18,800
9/21/2017 5 AM CDT 355.30 305.80 19,000
9/21/2017 6 AM CDT 355.30 305.80 18,800
9/21/2017 7 AM CDT 355.35 305.75 18,800
9/21/2017 8 AM CDT 355.35 305.65 18,600
9/21/2017 9 AM CDT 355.35 305.65 18,600
9/21/2017 10 AM CDT 355.35 305.55 18,600
9/21/2017 11 AM CDT 355.35 305.45 18,600
9/21/2017 12 PM CDT 355.35 305.40 18,600
9/21/2017 1 PM CDT 355.35 305.35 -999
9/21/2017 2 PM CDT 355.35 305.35 -999
9/21/2017 3 PM CDT 355.35 305.35 -999
9/21/2017 4 PM CDT 355.25 307.05 28,800
9/21/2017 5 PM CDT 355.30 307.40 29,100
9/21/2017 6 PM CDT 355.30 307.60 29,100
9/21/2017 7 PM CDT 355.25 307.85 29,400
9/21/2017 8 PM CDT 355.30 306.50 19,000
9/21/2017 9 PM CDT 355.35 306.05 18,800
9/21/2017 10 PM CDT 355.35 305.85 18,800
9/21/2017 11 PM CDT 355.40 305.50 18,600
9/22/2017 12 AM CDT 355.40 305.40 18,600
9/22/2017 1 AM CDT 355.45 305.15 -999
9/22/2017 2 AM CDT 355.45 305.05 -999
9/22/2017 3 AM CDT 355.45 304.85 -999
9/22/2017 4 AM CDT 355.45 304.75 -999
9/22/2017 5 AM CDT 355.45 304.65 18,400
9/22/2017 6 AM CDT 355.45 304.55 18,200
9/22/2017 7 AM CDT 355.45 304.45 -999
9/22/2017 8 AM CDT 355.50 304.40 -999
9/22/2017 9 AM CDT 355.50 304.40 -999
9/22/2017 10 AM CDT 355.50 304.30 18,200
9/22/2017 11 AM CDT 355.50 304.20 18,200
9/22/2017 12 PM CDT 355.50 304.20 18,200
9/22/2017 1 PM CDT 355.50 304.10 18,200
9/22/2017 2 PM CDT 355.50 304.10 18,200
9/22/2017 3 PM CDT 355.45 305.75 27,900
9/22/2017 4 PM CDT 355.45 306.15 28,200
9/22/2017 5 PM CDT 355.45 306.65 28,500
9/22/2017 6 PM CDT 355.45 307.15 28,800
9/22/2017 7 PM CDT 355.50 306.10 18,500
9/22/2017 8 PM CDT 355.50 305.60 18,400
9/22/2017 9 PM CDT 355.50 305.30 18,300
9/22/2017 10 PM CDT 355.50 305.10 18,400
9/22/2017 11 PM CDT 355.50 305.10 18,400
9/23/2017 12 AM CDT 355.50 305.00 18,400

Elevations are in feet above sea level. Discharges are in cubic feet per second and are reported at the end of the hour.